createdAt,value
2019-02-17T00:00:00.713Z,6.40
2019-02-17T00:02:29.085Z,6.40
2019-02-17T00:04:57.553Z,6.40
2019-02-17T00:07:25.833Z,6.40
2019-02-17T00:09:54.140Z,6.50
2019-02-17T00:12:22.491Z,6.50
2019-02-17T00:14:51.024Z,6.50
2019-02-17T00:17:19.859Z,6.50
2019-02-17T00:19:49.098Z,6.60
2019-02-17T00:22:17.220Z,6.60
2019-02-17T00:24:45.203Z,6.50
2019-02-17T00:27:14.872Z,6.50
2019-02-17T00:29:43.001Z,6.30
2019-02-17T00:32:12.213Z,6.40
2019-02-17T00:34:40.983Z,6.40
2019-02-17T00:39:37.455Z,6.20
2019-02-17T00:42:05.636Z,6.30
2019-02-17T00:44:34.092Z,6.20
2019-02-17T00:47:02.558Z,6.10
2019-02-17T00:49:31.463Z,5.90
2019-02-17T00:52:00.179Z,5.90
2019-02-17T00:54:28.768Z,5.90
2019-02-17T00:56:57.418Z,6.00
2019-02-17T00:59:25.816Z,5.90
2019-02-17T01:01:54.283Z,6.10
2019-02-17T01:04:22.767Z,6.10
2019-02-17T01:06:50.727Z,6.10
2019-02-17T01:09:19.426Z,6.10
2019-02-17T01:11:48.079Z,6.20
2019-02-17T01:14:16.803Z,6.30
2019-02-17T01:16:44.387Z,6.30
2019-02-17T01:19:13.158Z,6.10
2019-02-17T01:21:41.567Z,6.10
2019-02-17T01:24:09.907Z,6.00
2019-02-17T01:26:37.878Z,5.80
2019-02-17T01:29:05.963Z,5.70
2019-02-17T01:31:33.603Z,5.70
2019-02-17T01:34:09.585Z,5.60
2019-02-17T01:36:37.946Z,5.70
2019-02-17T01:39:06.740Z,5.70
2019-02-17T01:41:33.919Z,5.70
2019-02-17T01:44:02.002Z,5.70
2019-02-17T01:46:29.378Z,5.70
2019-02-17T01:48:57.373Z,5.70
2019-02-17T01:51:25.070Z,5.70
2019-02-17T01:53:53.839Z,5.80
2019-02-17T01:56:22.774Z,5.70
2019-02-17T01:58:50.835Z,5.60
2019-02-17T02:01:19.271Z,5.60
2019-02-17T02:03:48.307Z,5.70
2019-02-17T02:06:15.948Z,5.80
2019-02-17T02:08:44.230Z,5.80
2019-02-17T02:11:12.697Z,5.80
2019-02-17T02:13:40.712Z,5.80
2019-02-17T02:16:09.066Z,5.80
2019-02-17T02:18:36.715Z,5.70
2019-02-17T02:21:05.008Z,5.50
2019-02-17T02:23:33.715Z,5.70
2019-02-17T02:26:02.017Z,5.70
2019-02-17T02:28:29.742Z,5.70
2019-02-17T02:30:58.616Z,5.50
2019-02-17T02:33:26.824Z,5.30
2019-02-17T02:35:55.771Z,5.20
2019-02-17T02:38:24.474Z,5.30
2019-02-17T02:40:52.732Z,5.40
2019-02-17T02:43:21.116Z,5.40
2019-02-17T02:48:17.289Z,5.40
2019-02-17T02:50:45.259Z,5.40
2019-02-17T02:53:13.211Z,5.50
2019-02-17T02:55:41.349Z,5.40
2019-02-17T02:58:09.041Z,5.30
2019-02-17T03:00:38.146Z,5.30
2019-02-17T03:03:06.240Z,5.40
2019-02-17T03:05:35.690Z,5.40
2019-02-17T03:08:05.023Z,5.20
2019-02-17T03:10:33.766Z,5.10
2019-02-17T03:13:02.388Z,4.90
2019-02-17T03:15:30.367Z,4.70
2019-02-17T03:17:59.269Z,4.60
2019-02-17T03:20:27.515Z,4.60
2019-02-17T03:22:56.453Z,4.50
2019-02-17T03:25:25.735Z,4.50
2019-02-17T03:27:53.781Z,4.40
2019-02-17T03:30:22.292Z,4.40
2019-02-17T03:32:50.592Z,4.40
2019-02-17T03:35:18.171Z,4.30
2019-02-17T03:40:14.140Z,4.50
2019-02-17T03:42:42.440Z,4.90
2019-02-17T03:45:10.188Z,5.00
2019-02-17T03:47:38.448Z,5.10
2019-02-17T03:50:07.455Z,5.20
2019-02-17T03:52:36.337Z,5.20
2019-02-17T03:55:04.492Z,5.10
2019-02-17T03:57:32.966Z,5.00
2019-02-17T04:00:00.406Z,4.90
2019-02-17T04:02:28.377Z,4.90
2019-02-17T04:04:56.403Z,4.90
2019-02-17T04:07:24.573Z,4.70
2019-02-17T04:09:52.960Z,4.60
2019-02-17T04:12:20.932Z,4.60
2019-02-17T04:14:48.320Z,4.60
2019-02-17T04:17:16.786Z,4.70
2019-02-17T04:19:44.930Z,4.90
2019-02-17T04:22:13.824Z,4.80
2019-02-17T04:24:41.909Z,4.90
2019-02-17T04:27:10.608Z,4.90
2019-02-17T04:29:38.266Z,4.90
2019-02-17T04:32:06.964Z,4.70
2019-02-17T04:34:35.467Z,4.80
2019-02-17T04:37:03.797Z,4.70
2019-02-17T04:39:31.704Z,4.60
2019-02-17T04:42:00.050Z,4.50
2019-02-17T04:46:55.259Z,4.50
2019-02-17T04:49:23.564Z,4.40
2019-02-17T04:51:52.460Z,4.40
2019-02-17T04:54:20.723Z,4.40
2019-02-17T04:59:16.594Z,4.40
2019-02-17T05:01:44.686Z,4.40
2019-02-17T05:04:13.558Z,4.40
2019-02-17T05:06:41.142Z,4.40
2019-02-17T05:09:09.169Z,4.40
2019-02-17T05:16:33.256Z,4.30
2019-02-17T05:19:02.539Z,4.40
2019-02-17T05:21:30.646Z,4.30
2019-02-17T05:23:59.396Z,4.30
2019-02-17T05:26:27.509Z,4.30
2019-02-17T05:28:56.563Z,4.40
2019-02-17T05:31:25.475Z,4.40
2019-02-17T05:33:53.778Z,4.30
2019-02-17T05:36:21.757Z,4.30
2019-02-17T05:41:18.556Z,4.30
2019-02-17T05:43:46.167Z,4.30
2019-02-17T05:46:14.965Z,4.30
2019-02-17T05:48:42.909Z,4.10
2019-02-17T05:51:11.178Z,4.20
2019-02-17T05:53:39.933Z,4.10
2019-02-17T05:56:07.591Z,4.10
2019-02-17T06:01:07.415Z,4.50
2019-02-17T06:03:35.758Z,4.30
2019-02-17T06:06:03.843Z,4.40
2019-02-17T06:08:31.406Z,4.40
2019-02-17T06:10:59.767Z,4.20
2019-02-17T06:13:28.156Z,4.10
2019-02-17T06:15:56.116Z,4.10
2019-02-17T06:18:24.802Z,4.20
2019-02-17T06:20:52.499Z,4.20
2019-02-17T06:23:20.853Z,4.40
2019-02-17T06:25:49.504Z,4.40
2019-02-17T06:28:18.015Z,4.40
2019-02-17T06:30:45.570Z,4.40
2019-02-17T06:35:42.900Z,4.30
2019-02-17T06:38:11.640Z,4.20
2019-02-17T06:40:39.647Z,4.30
2019-02-17T06:43:07.571Z,4.40
2019-02-17T06:45:35.623Z,4.40
2019-02-17T06:50:32.861Z,4.20
2019-02-17T06:53:01.770Z,4.00
2019-02-17T06:56:00.796Z,4.00
2019-02-17T06:58:28.476Z,4.00
2019-02-17T07:00:58.795Z,4.20
2019-02-17T07:03:27.476Z,4.50
2019-02-17T07:06:21.719Z,4.60
2019-02-17T07:08:50.155Z,4.70
2019-02-17T07:11:18.556Z,4.60
2019-02-17T07:13:47.006Z,4.60
2019-02-17T07:16:16.388Z,4.90
2019-02-17T07:18:46.909Z,4.70
2019-02-17T07:23:44.335Z,4.70
2019-02-17T07:26:12.022Z,4.80
2019-02-17T07:28:40.363Z,4.90
2019-02-17T07:31:08.862Z,5.10
2019-02-17T07:33:37.497Z,5.10
2019-02-17T07:36:05.497Z,5.10
2019-02-17T07:38:33.796Z,5.00
2019-02-17T07:41:01.775Z,5.10
2019-02-17T07:43:29.019Z,5.10
2019-02-17T07:45:57.091Z,5.20
2019-02-17T07:48:26.130Z,5.40
2019-02-17T07:50:56.727Z,5.50
2019-02-17T07:53:24.553Z,5.40
2019-02-17T07:55:52.544Z,5.40
2019-02-17T07:58:20.959Z,5.60
2019-02-17T08:00:49.047Z,5.70
2019-02-17T08:05:49.237Z,5.90
2019-02-17T08:08:19.108Z,6.00
2019-02-17T08:11:03.990Z,6.00
2019-02-17T08:13:30.599Z,6.10
2019-02-17T08:15:58.517Z,6.20
2019-02-17T08:18:26.287Z,6.20
2019-02-17T08:20:56.729Z,6.40
2019-02-17T08:23:24.769Z,6.50
2019-02-17T08:25:54.063Z,6.60
2019-02-17T08:28:24.598Z,6.70
2019-02-17T08:30:53.103Z,6.80
2019-02-17T08:33:21.183Z,7.00
2019-02-17T08:35:55.622Z,7.20
2019-02-17T08:38:24.175Z,7.20
2019-02-17T08:40:52.240Z,7.60
2019-02-17T08:43:21.387Z,7.60
2019-02-17T08:45:49.898Z,7.70
2019-02-17T08:48:27.823Z,7.80
2019-02-17T08:50:56.124Z,7.80
2019-02-17T08:53:24.310Z,7.80
2019-02-17T08:55:52.899Z,8.20
2019-02-17T08:58:22.588Z,8.60
2019-02-17T09:00:51.187Z,8.90
2019-02-17T09:03:19.947Z,9.20
2019-02-17T09:05:48.937Z,9.40
2019-02-17T09:08:17.682Z,9.60
2019-02-17T09:10:45.432Z,10.00
2019-02-17T09:13:13.832Z,10.40
2019-02-17T09:18:10.824Z,10.70
2019-02-17T09:20:39.017Z,11.20
2019-02-17T09:23:07.680Z,11.70
2019-02-17T09:25:36.885Z,12.10
2019-02-17T09:28:05.868Z,12.10
2019-02-17T09:30:35.394Z,12.40
2019-02-17T09:33:03.580Z,12.70
2019-02-17T09:35:31.944Z,12.90
2019-02-17T09:38:00.083Z,13.30
2019-02-17T09:40:28.565Z,13.70
2019-02-17T09:42:56.971Z,13.80
2019-02-17T09:47:53.823Z,14.00
2019-02-17T09:50:22.374Z,14.40
2019-02-17T09:52:50.608Z,14.50
2019-02-17T09:55:18.374Z,15.20
2019-02-17T09:57:46.807Z,15.70
2019-02-17T10:00:15.215Z,16.30
2019-02-17T10:02:43.434Z,16.90
2019-02-17T10:05:11.756Z,17.00
2019-02-17T10:07:40.281Z,17.60
2019-02-17T10:10:10.450Z,17.70
2019-02-17T10:12:38.508Z,17.90
2019-02-17T10:15:10.397Z,18.00
2019-02-17T10:17:38.506Z,19.30
2019-02-17T10:20:07.154Z,19.50
2019-02-17T10:22:35.517Z,19.50
2019-02-17T10:25:04.491Z,19.20
2019-02-17T10:32:38.365Z,19.90
2019-02-17T10:35:00.089Z,20.30
2019-02-17T10:37:29.460Z,20.70
2019-02-17T10:39:57.598Z,21.40
2019-02-17T10:42:26.009Z,22.30
2019-02-17T10:44:54.059Z,22.60
2019-02-17T10:47:22.864Z,22.70
2019-02-17T10:49:51.958Z,23.10
2019-02-17T10:52:20.275Z,23.10
2019-02-17T10:54:50.341Z,23.90
2019-02-17T10:57:19.888Z,24.00
2019-02-17T10:59:47.741Z,25.10
2019-02-17T11:02:18.125Z,26.00
2019-02-17T11:04:46.838Z,26.20
2019-02-17T11:07:17.756Z,28.50
2019-02-17T11:09:47.450Z,28.80
2019-02-17T11:12:15.550Z,28.10
2019-02-17T11:14:43.893Z,28.10
2019-02-17T11:17:15.206Z,28.50
2019-02-17T11:19:43.955Z,27.40
2019-02-17T11:22:22.746Z,27.90
2019-02-17T11:24:46.395Z,26.70
2019-02-17T11:27:15.168Z,25.50
2019-02-17T11:29:44.160Z,25.70
2019-02-17T11:32:12.221Z,25.50
2019-02-17T11:34:40.700Z,25.40
2019-02-17T11:37:10.539Z,24.80
2019-02-17T11:39:40.851Z,24.80
2019-02-17T11:42:09.334Z,24.80
2019-02-17T11:44:39.187Z,25.00
2019-02-17T11:47:08.837Z,25.30
2019-02-17T11:49:37.900Z,26.10
2019-02-17T11:52:06.527Z,26.20
2019-02-17T11:54:35.079Z,26.20
2019-02-17T11:57:04.178Z,26.10
2019-02-17T11:59:32.462Z,25.40
2019-02-17T12:02:01.365Z,25.40
2019-02-17T12:04:29.066Z,25.40
2019-02-17T12:06:57.668Z,24.60
2019-02-17T12:09:28.289Z,24.60
2019-02-17T12:11:56.318Z,24.60
2019-02-17T12:14:32.477Z,24.40
2019-02-17T12:17:01.443Z,25.00
2019-02-17T12:19:29.557Z,24.80
2019-02-17T12:22:12.379Z,24.70
2019-02-17T12:25:01.628Z,24.70
2019-02-17T12:27:34.739Z,25.10
2019-02-17T12:30:08.317Z,25.50
2019-02-17T12:32:37.120Z,25.60
2019-02-17T12:35:05.749Z,26.30
2019-02-17T12:37:56.348Z,26.10
2019-02-17T12:40:24.765Z,25.60
2019-02-17T12:42:53.603Z,25.60
2019-02-17T12:45:21.751Z,25.20
2019-02-17T12:47:57.885Z,20.80
2019-02-17T12:50:22.127Z,23.90
2019-02-17T12:52:50.768Z,24.10
2019-02-17T12:55:19.467Z,24.50
2019-02-17T12:57:47.942Z,24.80
2019-02-17T13:00:16.714Z,25.10
2019-02-17T13:02:44.829Z,23.90
2019-02-17T13:05:12.254Z,23.20
2019-02-17T13:07:42.722Z,22.80
2019-02-17T13:10:11.217Z,23.60
2019-02-17T13:12:39.964Z,23.70
2019-02-17T13:15:08.787Z,24.50
2019-02-17T13:17:38.693Z,24.20
2019-02-17T13:20:08.471Z,23.90
2019-02-17T13:22:36.640Z,23.50
2019-02-17T13:25:05.073Z,23.50
2019-02-17T13:27:33.856Z,23.20
2019-02-17T13:30:01.894Z,22.30
2019-02-17T13:32:30.068Z,22.30
2019-02-17T13:34:58.025Z,21.70
2019-02-17T13:37:27.407Z,21.60
2019-02-17T13:39:55.462Z,21.50
2019-02-17T13:42:24.145Z,21.50
2019-02-17T13:44:52.735Z,21.50
2019-02-17T13:47:20.415Z,21.50
2019-02-17T13:49:48.494Z,20.40
2019-02-17T13:52:31.990Z,20.30
2019-02-17T13:55:00.487Z,19.50
2019-02-17T13:57:28.500Z,19.50
2019-02-17T13:59:56.912Z,19.30
2019-02-17T14:02:25.526Z,19.50
2019-02-17T14:05:02.350Z,19.30
2019-02-17T14:07:30.733Z,19.60
2019-02-17T14:09:59.521Z,19.10
2019-02-17T14:12:29.758Z,19.10
2019-02-17T14:14:57.108Z,18.90
2019-02-17T14:17:27.135Z,18.70
2019-02-17T14:19:56.025Z,18.20
2019-02-17T14:22:25.622Z,18.10
2019-02-17T14:24:54.536Z,18.10
2019-02-17T14:27:36.401Z,18.20
2019-02-17T14:30:05.364Z,18.40
2019-02-17T14:32:34.175Z,18.30
2019-02-17T14:35:02.994Z,18.40
2019-02-17T14:37:30.663Z,18.70
2019-02-17T14:39:59.234Z,19.20
2019-02-17T14:42:27.285Z,19.30
2019-02-17T14:44:55.716Z,19.60
2019-02-17T14:47:24.057Z,20.30
2019-02-17T14:49:51.719Z,20.80
2019-02-17T14:52:20.719Z,20.80
2019-02-17T14:54:49.600Z,20.80
2019-02-17T14:57:18.184Z,21.10
2019-02-17T14:59:46.092Z,20.80
2019-02-17T15:02:14.900Z,20.80
2019-02-17T15:04:43.341Z,20.00
2019-02-17T15:07:11.813Z,19.10
2019-02-17T15:09:39.463Z,19.50
2019-02-17T15:12:09.884Z,19.60
2019-02-17T15:14:38.612Z,20.10
2019-02-17T15:17:06.652Z,20.50
2019-02-17T15:19:34.754Z,20.30
2019-02-17T15:22:03.822Z,20.30
2019-02-17T15:24:31.912Z,19.40
2019-02-17T15:27:02.663Z,18.20
2019-02-17T15:29:32.852Z,17.30
2019-02-17T15:32:01.303Z,16.70
2019-02-17T15:34:30.044Z,16.60
2019-02-17T15:37:24.440Z,15.90
2019-02-17T15:39:49.251Z,15.30
2019-02-17T15:42:17.383Z,15.20
2019-02-17T15:44:46.165Z,14.90
2019-02-17T15:47:14.653Z,15.00
2019-02-17T15:49:43.181Z,14.50
2019-02-17T15:54:41.812Z,14.00
2019-02-17T15:57:11.144Z,14.80
2019-02-17T15:59:39.644Z,14.30
2019-02-17T16:02:07.817Z,14.20
2019-02-17T16:04:37.575Z,14.40
2019-02-17T16:07:06.258Z,14.20
2019-02-17T16:09:35.246Z,14.10
2019-02-17T16:12:05.745Z,14.10
2019-02-17T16:14:33.727Z,13.70
2019-02-17T16:17:02.280Z,13.70
2019-02-17T16:19:30.370Z,13.60
2019-02-17T16:21:58.586Z,13.60
2019-02-17T16:24:26.806Z,13.60
2019-02-17T16:26:55.304Z,13.60
2019-02-17T16:29:23.696Z,13.50
2019-02-17T16:31:53.048Z,13.50
2019-02-17T16:34:21.741Z,13.40
2019-02-17T16:36:50.299Z,13.40
2019-02-17T16:39:19.119Z,13.50
2019-02-17T16:41:48.054Z,13.40
2019-02-17T16:44:15.788Z,13.20
2019-02-17T16:46:44.474Z,12.80
2019-02-17T16:49:12.968Z,12.80
2019-02-17T16:51:41.229Z,12.60
2019-02-17T16:56:38.154Z,12.40
2019-02-17T16:59:07.809Z,12.40
2019-02-17T17:01:36.581Z,12.40
2019-02-17T17:04:05.798Z,12.20
2019-02-17T17:06:34.188Z,12.00
2019-02-17T17:09:02.343Z,12.00
2019-02-17T17:11:30.999Z,11.80
2019-02-17T17:13:58.600Z,11.50
2019-02-17T17:16:27.611Z,11.20
2019-02-17T17:18:55.960Z,10.90
2019-02-17T17:21:24.443Z,10.80
2019-02-17T17:23:53.143Z,10.90
2019-02-17T17:26:22.020Z,10.90
2019-02-17T17:28:49.811Z,10.70
2019-02-17T17:31:17.614Z,10.40
2019-02-17T17:33:45.229Z,10.30
2019-02-17T17:38:41.359Z,9.80
2019-02-17T17:43:39.939Z,10.00
2019-02-17T17:46:09.492Z,9.90
2019-02-17T17:51:08.056Z,9.90
2019-02-17T17:53:36.319Z,9.80
2019-02-17T17:56:04.635Z,9.80
2019-02-17T17:58:32.402Z,9.70
2019-02-17T18:01:00.943Z,9.70
2019-02-17T18:03:29.412Z,9.70
2019-02-17T18:05:57.418Z,9.60
2019-02-17T18:08:25.337Z,9.50
2019-02-17T18:10:54.323Z,9.50
2019-02-17T18:13:23.435Z,9.40
2019-02-17T18:15:51.705Z,9.40
2019-02-17T18:18:19.284Z,9.40
2019-02-17T18:20:49.012Z,9.40
2019-02-17T18:23:17.288Z,7.70
2019-02-17T18:28:13.660Z,9.30
2019-02-17T18:30:41.717Z,9.20
2019-02-17T18:33:10.140Z,9.20
2019-02-17T18:35:39.062Z,9.20
2019-02-17T18:38:07.193Z,9.20
2019-02-17T18:43:04.760Z,9.10
2019-02-17T18:45:32.245Z,9.10
2019-02-17T18:48:00.390Z,9.00
2019-02-17T18:50:28.394Z,9.00
2019-02-17T18:55:25.663Z,9.00
2019-02-17T18:57:55.246Z,9.00
2019-02-17T19:00:23.810Z,8.90
2019-02-17T19:02:53.023Z,8.90
2019-02-17T19:05:31.123Z,8.80
2019-02-17T19:07:51.135Z,8.70
2019-02-17T19:10:18.937Z,8.70
2019-02-17T19:12:47.778Z,8.70
2019-02-17T19:15:18.349Z,8.60
2019-02-17T19:17:46.343Z,8.50
2019-02-17T19:20:16.106Z,8.50
2019-02-17T19:22:44.973Z,8.50
2019-02-17T19:25:13.465Z,8.40
2019-02-17T19:27:42.232Z,8.40
2019-02-17T19:30:11.902Z,8.30
2019-02-17T19:32:39.620Z,8.40
2019-02-17T19:37:36.499Z,8.40
2019-02-17T19:40:07.104Z,8.40
2019-02-17T19:42:36.171Z,8.30
2019-02-17T19:45:04.281Z,8.30
2019-02-17T19:47:32.416Z,8.20
2019-02-17T19:50:01.071Z,8.20
2019-02-17T19:52:29.340Z,8.40
2019-02-17T19:54:57.098Z,8.20
2019-02-17T19:57:25.257Z,8.10
2019-02-17T19:59:57.962Z,8.10
2019-02-17T20:02:43.823Z,8.10
2019-02-17T20:05:27.461Z,8.10
2019-02-17T20:08:19.459Z,8.00
2019-02-17T20:10:48.728Z,8.00
2019-02-17T20:13:16.777Z,8.00
2019-02-17T20:15:46.063Z,8.10
2019-02-17T20:18:14.342Z,7.90
2019-02-17T20:20:43.010Z,7.80
2019-02-17T20:23:13.500Z,7.80
2019-02-17T20:25:41.213Z,7.80
2019-02-17T20:28:10.621Z,7.80
2019-02-17T20:30:39.705Z,7.80
2019-02-17T20:33:09.043Z,7.80
2019-02-17T20:35:38.851Z,7.70
2019-02-17T20:38:07.787Z,7.80
2019-02-17T20:40:35.891Z,7.70
2019-02-17T20:43:03.820Z,7.70
2019-02-17T20:45:32.505Z,7.60
2019-02-17T20:48:01.279Z,7.60
2019-02-17T20:50:29.448Z,7.60
2019-02-17T20:52:58.491Z,7.60
2019-02-17T20:55:27.009Z,7.60
2019-02-17T20:57:55.745Z,7.50
2019-02-17T21:00:26.848Z,7.50
2019-02-17T21:02:54.147Z,7.40
2019-02-17T21:05:24.610Z,7.50
2019-02-17T21:07:53.008Z,7.40
2019-02-17T21:10:22.330Z,7.40
2019-02-17T21:12:50.553Z,7.50
2019-02-17T21:15:20.012Z,7.40
2019-02-17T21:17:49.058Z,7.40
2019-02-17T21:20:18.479Z,4.70
2019-02-17T21:22:47.761Z,7.30
2019-02-17T21:25:15.842Z,7.30
2019-02-17T21:30:14.156Z,7.30
2019-02-17T21:32:44.404Z,7.30
2019-02-17T21:35:19.826Z,7.30
2019-02-17T21:37:48.933Z,7.30
2019-02-17T21:40:17.119Z,7.30
2019-02-17T21:42:45.476Z,7.10
2019-02-17T21:45:13.856Z,7.10
2019-02-17T21:47:41.756Z,7.10
2019-02-17T21:52:38.400Z,7.10
2019-02-17T21:55:06.688Z,7.10
2019-02-17T21:57:35.109Z,7.10
2019-02-17T22:00:03.204Z,7.10
2019-02-17T22:02:31.706Z,7.10
2019-02-17T22:04:59.975Z,7.00
2019-02-17T22:09:56.524Z,7.00
2019-02-17T22:12:24.303Z,7.00
2019-02-17T22:14:52.885Z,7.00
2019-02-17T22:17:20.519Z,7.00
2019-02-17T22:19:48.187Z,7.00
2019-02-17T22:22:16.658Z,6.90
2019-02-17T22:24:45.119Z,6.90
2019-02-17T22:27:32.800Z,6.90
2019-02-17T22:30:01.403Z,6.90
2019-02-17T22:32:30.036Z,6.80
2019-02-17T22:34:59.245Z,6.80
2019-02-17T22:37:27.375Z,6.70
2019-02-17T22:39:55.389Z,6.70
2019-02-17T22:42:24.786Z,6.70
2019-02-17T22:44:53.776Z,6.70
2019-02-17T22:47:22.255Z,6.70
2019-02-17T22:49:50.947Z,6.70
2019-02-17T22:52:19.811Z,6.70
2019-02-17T22:54:49.253Z,4.40
2019-02-17T22:57:18.075Z,6.70
2019-02-17T22:59:46.748Z,6.70
2019-02-17T23:02:15.127Z,6.70
2019-02-17T23:04:43.719Z,6.60
2019-02-17T23:07:11.431Z,6.60
2019-02-17T23:09:40.189Z,6.60
2019-02-17T23:12:07.943Z,6.50
2019-02-17T23:14:36.076Z,6.60
2019-02-17T23:17:04.832Z,6.60
2019-02-17T23:19:34.047Z,6.60
2019-02-17T23:22:02.435Z,6.50
2019-02-17T23:24:31.471Z,6.50
2019-02-17T23:26:58.658Z,6.40
2019-02-17T23:29:27.618Z,6.50
2019-02-17T23:31:56.255Z,6.40
2019-02-17T23:34:25.039Z,6.40
2019-02-17T23:36:53.454Z,6.40
2019-02-17T23:39:21.769Z,6.30
2019-02-17T23:41:49.978Z,6.30
2019-02-17T23:44:18.785Z,6.30
2019-02-17T23:46:46.393Z,6.30
2019-02-17T23:49:15.118Z,6.30
2019-02-17T23:51:44.111Z,6.30
2019-02-17T23:54:12.584Z,6.20
2019-02-17T23:56:40.989Z,6.20
2019-02-17T23:59:09.351Z,6.20
